Time,TemperatureF,DewpointF,PressureIn,WindDirection,WindDirectionDegrees,WindSpeedMPH,WindSpeedGustMPH,Humidity,HourlyPrecipIn,Conditions,Clouds,dailyrainin,SoftwareType,DateUTC
2013-03-25 00:00:00,47.4,45.0,29.93,NE,41,0.0,1.0,93,0.00,,,0.00,,2013-03-25 07:00:00,
2013-03-25 00:10:00,47.0,45.0,29.93,NE,41,0.0,0.0,93,0.00,,,0.00,,2013-03-25 07:10:00,
2013-03-25 00:20:00,47.2,46.0,29.93,NE,41,0.0,1.0,94,0.00,,,0.00,,2013-03-25 07:20:00,
2013-03-25 00:30:00,47.1,45.0,29.93,NW,326,3.0,4.0,94,0.00,,,0.00,,2013-03-25 07:30:00,
2013-03-25 00:40:00,46.6,45.0,29.93,NW,326,3.0,6.0,94,0.00,,,0.00,,2013-03-25 07:40:00,
2013-03-25 00:50:00,46.3,45.0,29.93,NW,326,2.0,3.0,94,0.00,,,0.00,,2013-03-25 07:50:00,
2013-03-25 01:00:00,46.1,44.0,29.93,NW,326,3.0,3.0,94,0.00,,,0.00,,2013-03-25 08:00:00,
2013-03-25 01:10:00,46.1,45.0,29.93,NW,326,1.0,3.0,95,0.00,,,0.00,,2013-03-25 08:10:00,
2013-03-25 01:20:00,46.2,45.0,29.93,NW,326,0.0,1.0,95,0.00,,,0.00,,2013-03-25 08:20:00,
2013-03-25 01:30:00,46.1,45.0,29.93,NW,326,0.0,1.0,95,0.00,,,0.00,,2013-03-25 08:30:00,
2013-03-25 01:40:00,46.1,45.0,29.93,NW,326,0.0,1.0,95,0.00,,,0.00,,2013-03-25 08:40:00,
2013-03-25 01:50:00,46.3,45.0,29.93,NW,326,0.0,1.0,96,0.00,,,0.00,,2013-03-25 08:50:00,
2013-03-25 02:00:00,45.8,44.0,29.93,NW,326,0.0,0.0,95,0.00,,,0.00,,2013-03-25 09:00:00,
2013-03-25 02:10:00,46.1,45.0,29.93,NW,326,0.0,0.0,96,0.00,,,0.00,,2013-03-25 09:10:00,
2013-03-25 02:20:00,46.3,45.0,29.93,NW,326,1.0,2.0,96,0.00,,,0.00,,2013-03-25 09:20:00,
2013-03-25 02:30:00,46.1,45.0,29.92,NW,326,0.0,2.0,96,0.00,,,0.00,,2013-03-25 09:30:00,
2013-03-25 02:40:00,45.9,45.0,29.92,NW,326,0.0,0.0,96,0.00,,,0.00,,2013-03-25 09:40:00,
2013-03-25 02:50:00,45.7,45.0,29.92,NW,326,0.0,0.0,96,0.00,,,0.00,,2013-03-25 09:50:00,
2013-03-25 03:00:00,45.8,45.0,29.92,NW,326,0.0,0.0,96,0.00,,,0.00,,2013-03-25 10:00:00,
2013-03-25 03:10:00,45.8,45.0,29.92,NW,326,0.0,1.0,96,0.00,,,0.00,,2013-03-25 10:10:00,
2013-03-25 03:20:00,46.0,45.0,29.92,NW,326,0.0,2.0,97,0.00,,,0.00,,2013-03-25 10:20:00,
2013-03-25 03:30:00,46.0,45.0,29.92,NW,326,0.0,0.0,96,0.00,,,0.00,,2013-03-25 10:30:00,
2013-03-25 03:40:00,46.1,45.0,29.92,NW,326,2.0,2.0,96,0.00,,,0.00,,2013-03-25 10:40:00,
2013-03-25 03:50:00,46.0,45.0,29.92,NW,326,2.0,3.0,97,0.00,,,0.00,,2013-03-25 10:50:00,
2013-03-25 04:00:00,46.2,45.0,29.91,NW,326,2.0,3.0,96,0.00,,,0.00,,2013-03-25 11:00:00,
2013-03-25 04:10:00,46.0,45.0,29.91,NW,326,2.0,2.0,96,0.00,,,0.00,,2013-03-25 11:10:00,
2013-03-25 04:20:00,46.0,45.0,29.91,NW,326,0.0,0.0,96,0.00,,,0.00,,2013-03-25 11:20:00,
2013-03-25 04:30:00,45.8,45.0,29.91,NW,326,0.0,0.0,96,0.00,,,0.00,,2013-03-25 11:30:00,
2013-03-25 04:40:00,45.5,44.0,29.91,NW,326,0.0,1.0,96,0.00,,,0.00,,2013-03-25 11:40:00,
2013-03-25 04:50:00,46.0,45.0,29.91,NW,326,0.0,2.0,97,0.00,,,0.00,,2013-03-25 11:50:00,
2013-03-25 05:00:00,45.8,45.0,29.91,NW,326,0.0,1.0,96,0.00,,,0.00,,2013-03-25 12:00:00,
2013-03-25 05:10:00,45.7,45.0,29.91,NW,326,0.0,2.0,97,0.00,,,0.00,,2013-03-25 12:10:00,
2013-03-25 05:20:00,45.8,45.0,29.91,NW,326,1.0,2.0,97,0.00,,,0.00,,2013-03-25 12:20:00,
2013-03-25 05:30:00,45.0,44.0,29.91,NW,326,0.0,2.0,96,0.00,,,0.00,,2013-03-25 12:30:00,
2013-03-25 05:40:00,45.1,44.0,29.91,NW,326,0.0,0.0,96,0.00,,,0.00,,2013-03-25 12:40:00,
2013-03-25 05:50:00,44.6,44.0,29.91,NW,326,0.0,1.0,96,0.00,,,0.00,,2013-03-25 12:50:00,
2013-03-25 06:00:00,45.0,44.0,29.92,NW,326,0.0,0.0,97,0.00,,,0.00,,2013-03-25 13:00:00,
2013-03-25 06:10:00,45.6,45.0,29.92,NW,326,0.0,0.0,97,0.00,,,0.00,,2013-03-25 13:10:00,
2013-03-25 06:20:00,45.9,45.0,29.92,NW,326,0.0,1.0,97,0.00,,,0.00,,2013-03-25 13:20:00,
2013-03-25 06:30:00,46.1,45.0,29.92,NW,326,0.0,1.0,97,0.00,,,0.00,,2013-03-25 13:30:00,
2013-03-25 06:40:00,45.9,45.0,29.93,NW,326,0.0,1.0,97,0.00,,,0.00,,2013-03-25 13:40:00,
2013-03-25 06:50:00,45.8,45.0,29.92,NW,326,0.0,1.0,97,0.00,,,0.00,,2013-03-25 13:50:00,
2013-03-25 07:00:00,45.6,45.0,29.92,NW,326,1.0,2.0,96,0.00,,,0.00,,2013-03-25 14:00:00,
2013-03-25 07:10:00,45.7,45.0,29.92,NW,326,2.0,2.0,97,0.00,,,0.00,,2013-03-25 14:10:00,
2013-03-25 07:20:00,45.4,44.0,29.92,NW,326,3.0,4.0,96,0.00,,,0.00,,2013-03-25 14:20:00,
2013-03-25 07:30:00,45.9,45.0,29.92,NW,313,2.0,4.0,97,0.00,,,0.00,,2013-03-25 14:30:00,
2013-03-25 07:40:00,46.4,46.0,29.93,NE,53,2.0,2.0,97,0.00,,,0.00,,2013-03-25 14:40:00,
2013-03-25 07:50:00,46.5,46.0,29.93,NE,53,1.0,2.0,97,0.00,,,0.00,,2013-03-25 14:50:00,
2013-03-25 08:00:00,47.1,46.0,29.93,NE,50,0.0,255.0,97,0.00,,,0.00,,2013-03-25 15:00:00,
2013-03-25 08:10:00,47.7,47.0,29.93,NE,53,0.0,0.0,97,0.00,,,0.00,,2013-03-25 15:10:00,
2013-03-25 08:20:00,47.9,47.0,29.93,NE,53,0.0,1.0,97,0.00,,,0.00,,2013-03-25 15:20:00,
2013-03-25 08:30:00,48.8,48.0,29.93,NE,53,0.0,0.0,97,0.00,,,0.00,,2013-03-25 15:30:00,
2013-03-25 08:40:00,48.8,48.0,29.94,NE,53,0.0,0.0,96,0.00,,,0.00,,2013-03-25 15:40:00,
2013-03-25 08:50:00,49.5,49.0,29.94,NE,53,0.0,2.0,97,0.00,,,0.00,,2013-03-25 15:50:00,
2013-03-25 09:00:00,50.1,49.0,29.94,NE,53,1.0,1.0,95,0.00,,,0.00,,2013-03-25 16:00:00,
2013-03-25 09:10:00,51.2,50.0,29.94,NE,53,0.0,0.0,95,0.00,,,0.00,,2013-03-25 16:10:00,
2013-03-25 09:20:00,51.6,50.0,29.94,NE,53,0.0,0.0,94,0.00,,,0.00,,2013-03-25 16:20:00,
2013-03-25 09:30:00,51.7,50.0,29.94,NE,53,0.0,1.0,94,0.00,,,0.00,,2013-03-25 16:30:00,
2013-03-25 09:40:00,52.0,50.0,29.95,NE,53,1.0,2.0,93,0.00,,,0.00,,2013-03-25 16:40:00,
2013-03-25 09:50:00,53.1,51.0,29.95,NE,53,0.0,0.0,91,0.00,,,0.00,,2013-03-25 16:50:00,
2013-03-25 10:00:00,54.9,52.0,29.95,NE,53,0.0,0.0,91,0.00,,,0.00,,2013-03-25 17:00:00,
2013-03-25 10:10:00,56.2,53.0,29.95,NE,53,1.0,2.0,89,0.00,,,0.00,,2013-03-25 17:10:00,
2013-03-25 10:20:00,56.7,53.0,29.95,NE,53,0.0,2.0,87,0.00,,,0.00,,2013-03-25 17:20:00,
2013-03-25 10:30:00,57.7,53.0,29.96,NE,53,1.0,3.0,84,0.00,,,0.00,,2013-03-25 17:30:00,
2013-03-25 10:40:00,58.6,52.0,29.96,NE,53,0.0,1.0,79,0.00,,,0.00,,2013-03-25 17:40:00,
2013-03-25 10:50:00,60.3,54.0,29.95,NE,53,1.0,2.0,79,0.00,,,0.00,,2013-03-25 17:50:00,
2013-03-25 11:00:00,61.4,53.0,29.95,NE,53,0.0,2.0,74,0.00,,,0.00,,2013-03-25 18:00:00,
2013-03-25 11:10:00,63.4,55.0,29.95,NE,53,0.0,2.0,74,0.00,,,0.00,,2013-03-25 18:10:00,
2013-03-25 11:20:00,64.1,53.0,29.95,NE,53,0.0,2.0,68,0.00,,,0.00,,2013-03-25 18:20:00,
2013-03-25 11:30:00,65.0,54.0,29.94,NE,53,0.0,2.0,68,0.00,,,0.00,,2013-03-25 18:30:00,
2013-03-25 11:40:00,65.6,55.0,29.94,NE,53,0.0,3.0,69,0.00,,,0.00,,2013-03-25 18:40:00,
2013-03-25 11:50:00,66.9,55.0,29.94,NE,49,2.0,2.0,66,0.00,,,0.00,,2013-03-25 18:50:00,
2013-03-25 12:00:00,66.8,52.0,29.94,West,261,10.0,10.0,58,0.00,,,0.00,,2013-03-25 19:00:00,
2013-03-25 12:10:00,65.2,50.0,29.94,NW,304,4.0,7.0,57,0.00,,,0.00,,2013-03-25 19:10:00,
2013-03-25 12:20:00,65.8,49.0,29.94,West,279,4.0,6.0,54,0.00,,,0.00,,2013-03-25 19:20:00,
2013-03-25 12:30:00,66.7,47.0,29.93,WNW,292,2.0,6.0,50,0.00,,,0.00,,2013-03-25 19:30:00,
2013-03-25 12:40:00,66.8,46.0,29.93,West,274,3.0,6.0,48,0.00,,,0.00,,2013-03-25 19:40:00,
2013-03-25 12:50:00,64.7,50.0,29.93,WNW,292,4.0,8.0,59,0.00,,,0.00,,2013-03-25 19:50:00,
2013-03-25 13:00:00,63.7,51.0,29.93,WSW,256,8.0,8.0,64,0.00,,,0.00,,2013-03-25 20:00:00,
2013-03-25 13:10:00,61.9,50.0,29.93,WNW,296,4.0,8.0,65,0.00,,,0.00,,2013-03-25 20:10:00,
2013-03-25 13:20:00,62.0,50.0,29.92,West,281,2.0,6.0,64,0.00,,,0.00,,2013-03-25 20:20:00,
2013-03-25 13:30:00,62.4,51.0,29.92,WNW,286,3.0,7.0,66,0.00,,,0.00,,2013-03-25 20:30:00,
2013-03-25 13:40:00,63.6,52.0,29.92,WNW,294,3.0,5.0,67,0.00,,,0.00,,2013-03-25 20:40:00,
2013-03-25 13:50:00,62.9,52.0,29.91,West,279,7.0,9.0,67,0.00,,,0.00,,2013-03-25 20:50:00,
2013-03-25 14:00:00,59.9,50.0,29.92,WNW,292,5.0,10.0,71,0.00,,,0.00,,2013-03-25 21:00:00,
2013-03-25 14:10:00,56.4,49.0,29.92,NW,312,5.0,13.0,76,0.00,,,0.00,,2013-03-25 21:10:00,
2013-03-25 14:20:00,57.1,50.0,29.91,NW,309,3.0,8.0,77,0.00,,,0.00,,2013-03-25 21:20:00,
2013-03-25 14:30:00,59.0,51.0,29.91,NW,311,1.0,5.0,75,0.00,,,0.00,,2013-03-25 21:30:00,
2013-03-25 14:40:00,60.9,52.0,29.91,NW,311,5.0,7.0,73,0.00,,,0.00,,2013-03-25 21:40:00,
2013-03-25 14:50:00,58.3,50.0,29.90,WNW,303,2.0,12.0,74,0.00,,,0.00,,2013-03-25 21:50:00,
2013-03-25 15:00:00,57.7,50.0,29.90,WNW,296,5.0,10.0,75,0.00,,,0.00,,2013-03-25 22:00:00,
2013-03-25 15:10:00,58.2,50.0,29.90,NW,315,4.0,8.0,75,0.00,,,0.00,,2013-03-25 22:10:00,
2013-03-25 15:20:00,57.6,49.0,29.90,WNW,288,7.0,9.0,74,0.00,,,0.00,,2013-03-25 22:20:00,
2013-03-25 15:30:00,56.9,50.0,29.90,NW,321,9.0,11.0,78,0.00,,,0.00,,2013-03-25 22:30:00,
2013-03-25 15:40:00,57.5,50.0,29.90,NW,308,5.0,9.0,77,0.00,,,0.00,,2013-03-25 22:40:00,
2013-03-25 15:50:00,58.0,50.0,29.89,WNW,290,5.0,8.0,74,0.00,,,0.00,,2013-03-25 22:50:00,
2013-03-25 16:00:00,59.9,50.0,29.89,WNW,292,5.0,7.0,70,0.00,,,0.00,,2013-03-25 23:00:00,
2013-03-25 16:10:00,61.7,52.0,29.89,WNW,299,1.0,5.0,70,0.00,,,0.00,,2013-03-25 23:10:00,
2013-03-25 16:20:00,62.6,52.0,29.89,NNW,336,4.0,6.0,68,0.00,,,0.00,,2013-03-25 23:20:00,
2013-03-25 16:30:00,61.3,51.0,29.88,WNW,282,6.0,7.0,69,0.00,,,0.00,,2013-03-25 23:30:00,
2013-03-25 16:40:00,58.0,50.0,29.89,NW,305,7.0,12.0,74,0.00,,,0.00,,2013-03-25 23:40:00,
2013-03-25 16:50:00,55.7,49.0,29.89,NW,322,9.0,13.0,78,0.00,,,0.00,,2013-03-25 23:50:00,
2013-03-25 17:00:00,55.5,50.0,29.89,NW,323,9.0,11.0,81,0.00,,,0.00,,2013-03-26 00:00:00,
2013-03-25 17:10:00,55.3,49.0,29.89,NW,307,10.0,12.0,79,0.00,,,0.00,,2013-03-26 00:10:00,
2013-03-25 17:20:00,55.3,49.0,29.88,NW,311,10.0,11.0,79,0.00,,,0.00,,2013-03-26 00:20:00,
2013-03-25 17:30:00,55.3,49.0,29.88,NW,315,6.0,10.0,79,0.00,,,0.00,,2013-03-26 00:30:00,
2013-03-25 17:40:00,55.0,49.0,29.89,WNW,286,6.0,10.0,79,0.00,,,0.00,,2013-03-26 00:40:00,
2013-03-25 17:50:00,55.5,49.0,29.89,North,5,6.0,8.0,80,0.00,,,0.00,,2013-03-26 00:50:00,
2013-03-25 18:00:00,53.7,48.0,29.89,NW,323,8.0,12.0,80,0.00,,,0.00,,2013-03-26 01:00:00,
2013-03-25 18:10:00,52.0,47.0,29.89,NW,313,11.0,12.0,84,0.00,,,0.00,,2013-03-26 01:10:00,
2013-03-25 18:20:00,50.7,47.0,29.90,NW,304,8.0,13.0,87,0.00,,,0.00,,2013-03-26 01:20:00,
2013-03-25 18:30:00,49.9,47.0,29.90,NW,321,10.0,15.0,89,0.00,,,0.00,,2013-03-26 01:30:00,
2013-03-25 18:40:00,49.8,47.0,29.90,NNW,331,6.0,14.0,90,0.00,,,0.00,,2013-03-26 01:40:00,
2013-03-25 18:50:00,50.0,47.0,29.90,NW,321,5.0,10.0,90,0.00,,,0.00,,2013-03-26 01:50:00,
2013-03-25 19:00:00,50.0,47.0,29.89,NW,317,5.0,9.0,89,0.00,,,0.00,,2013-03-26 02:00:00,
2013-03-25 19:10:00,49.7,47.0,29.90,NW,321,4.0,9.0,89,0.00,,,0.00,,2013-03-26 02:10:00,
2013-03-25 19:20:00,49.4,47.0,29.90,WNW,295,8.0,8.0,90,0.00,,,0.00,,2013-03-26 02:20:00,
2013-03-25 19:30:00,49.1,46.0,29.90,West,280,4.0,7.0,90,0.00,,,0.00,,2013-03-26 02:30:00,
2013-03-25 19:40:00,48.8,46.0,29.90,WNW,300,4.0,10.0,91,0.00,,,0.00,,2013-03-26 02:40:00,
2013-03-25 19:50:00,48.7,46.0,29.90,WNW,292,3.0,8.0,91,0.00,,,0.00,,2013-03-26 02:50:00,
2013-03-25 20:00:00,48.6,46.0,29.90,WNW,290,0.0,2.0,91,0.00,,,0.00,,2013-03-26 03:00:00,
2013-03-25 20:10:00,48.5,46.0,29.91,NW,304,1.0,3.0,91,0.00,,,0.00,,2013-03-26 03:10:00,
2013-03-25 20:20:00,48.3,46.0,29.91,NW,304,1.0,2.0,91,0.00,,,0.00,,2013-03-26 03:20:00,
2013-03-25 20:30:00,48.3,46.0,29.92,NW,304,0.0,1.0,91,0.00,,,0.00,,2013-03-26 03:30:00,
2013-03-25 20:40:00,47.9,45.0,29.91,NW,304,0.0,0.0,91,0.00,,,0.00,,2013-03-26 03:40:00,
2013-03-25 20:50:00,47.7,46.0,29.92,NW,304,0.0,1.0,92,0.00,,,0.00,,2013-03-26 03:50:00,
2013-03-25 21:00:00,47.3,45.0,29.92,South,169,3.0,6.0,92,0.00,,,0.00,,2013-03-26 04:00:00,
2013-03-25 21:10:00,47.2,45.0,29.92,South,169,0.0,5.0,93,0.00,,,0.00,,2013-03-26 04:10:00,
2013-03-25 21:20:00,47.4,45.0,29.93,South,173,1.0,6.0,93,0.00,,,0.00,,2013-03-26 04:20:00,
2013-03-25 21:30:00,47.6,46.0,29.93,SSW,195,6.0,7.0,94,0.00,,,0.00,,2013-03-26 04:30:00,
2013-03-25 21:40:00,47.4,45.0,29.94,SSW,194,3.0,6.0,93,0.00,,,0.00,,2013-03-26 04:40:00,
2013-03-25 21:50:00,47.4,45.0,29.94,SW,229,0.0,5.0,93,0.00,,,0.00,,2013-03-26 04:50:00,
2013-03-25 22:00:00,47.6,46.0,29.94,SW,227,0.0,1.0,94,0.00,,,0.00,,2013-03-26 05:00:00,
2013-03-25 22:10:00,47.6,46.0,29.94,SW,227,1.0,2.0,94,0.00,,,0.00,,2013-03-26 05:10:00,
2013-03-25 22:20:00,47.6,46.0,29.95,South,189,2.0,5.0,94,0.00,,,0.00,,2013-03-26 05:20:00,
2013-03-25 22:30:00,47.3,46.0,29.95,SE,137,3.0,5.0,94,0.00,,,0.00,,2013-03-26 05:30:00,
2013-03-25 22:40:00,47.2,46.0,29.95,SE,142,6.0,8.0,94,0.00,,,0.00,,2013-03-26 05:40:00,
2013-03-25 22:50:00,46.9,46.0,29.95,SSE,167,0.0,6.0,95,0.00,,,0.00,,2013-03-26 05:50:00,
2013-03-25 23:00:00,47.2,46.0,29.95,SSE,151,3.0,6.0,96,0.00,,,0.00,,2013-03-26 06:00:00,
2013-03-25 23:10:00,47.1,46.0,29.95,SSE,153,2.0,5.0,95,0.00,,,0.00,,2013-03-26 06:10:00,
2013-03-25 23:20:00,47.0,46.0,29.96,SE,144,1.0,3.0,96,0.00,,,0.00,,2013-03-26 06:20:00,
2013-03-25 23:30:00,46.8,46.0,29.96,SSE,160,1.0,4.0,96,0.00,,,0.00,,2013-03-26 06:30:00,
2013-03-25 23:40:00,47.2,46.0,29.96,South,176,5.0,6.0,96,0.00,,,0.00,,2013-03-26 06:40:00,
2013-03-25 23:50:00,47.0,46.0,29.95,SSE,163,2.0,10.0,96,0.00,,,0.00,,2013-03-26 06:50:00,